• Join FlightAware (Why Join?)
  • Login
  • US Flag 
07:35AM EST


 

Airport Tracker/Info


-or-


 

Live Flight TrackerFlight Track Log ✈ USC110 ✈ 09-Jun-2013 ✈ KFTY - KCLT

Flight Track Log - Related Links

Times and Time Zones

All times are in EDT time to prevent confusion due to time zone crossing. See the USC110 flight status page for this flight to view local times or setup timezone preferences in your user account.

Time Position Orientation Groundspeed Altitude Reporting Facility
EDT Latitude Longitude Course Direction KTS MPH feet Rate Location/Type
04:18PM 33.8167 -84.5333 40° Northeast 150 173 2,800  Level Atlanta TRACON
04:19PM 33.8333 -84.4833 68° East 154 177 3,400 600 Climbing Atlanta TRACON
04:20PM 33.8333 -84.4333 90° East 155 178 4,100 600 Climbing Atlanta TRACON
04:21PM 33.8500 -84.4000 59° Northeast 155 178 4,600 420 Climbing Atlanta TRACON
04:22PM 33.8500 -84.3500 90° East 153 176 5,000 120 Climbing Atlanta TRACON
04:23PM 33.8667 -84.2833 73° East 169 194 4,900 -60 Descending Atlanta TRACON
04:23PM 33.8833 -84.2333 68° East 179 206 4,900  Level Atlanta TRACON
04:25PM 33.8833 -84.1833 90° East 179 206 5,000  Climbing Atlanta TRACON
04:25PM 33.9000 -84.1167 73° East 180 207 5,000  Level Atlanta TRACON
04:26PM 33.9000 -84.0667 90° East 181 208 5,000  Level Atlanta TRACON
04:28PM 33.9000 -84.0000 90° East 180 207 5,100 480 Climbing Atlanta TRACON
04:29PM 33.9167 -83.9500 68° East 158 182 6,100 900 Climbing Atlanta TRACON
04:29PM 33.9167 -83.9000 90° East 151 174 6,900 420 Climbing Atlanta TRACON
04:30PM 33.9167 -83.8500 90° East 182 209 7,000  Climbing Atlanta TRACON
04:31PM 33.9333 -83.7833 73° East 182 209 7,000  Level Atlanta TRACON
04:32PM 33.9500 -83.7167 73° East 186 214 7,000  Level Atlanta TRACON
04:33PM 33.9500 -83.6667 90° East 187 215 7,000  Level Atlanta TRACON
04:35PM 33.9667 -83.6000 73° East 185 213 7,000  Level Atlanta TRACON
04:36PM 33.9833 -83.5333 73° East 182 209 7,000  Level Atlanta TRACON
04:36PM 34.0000 -83.4833 68° East 181 208 7,000  Level Atlanta TRACON
04:38PM 34.0000 -83.4167 90° East 176 203 7,000  Level Atlanta TRACON
04:39PM 34.0167 -83.3667 68° East 180 207 7,000  Level Atlanta TRACON
04:40PM 34.0333 -83.3000 73° East 180 207 7,000  Level Atlanta TRACON
04:41PM 34.0333 -83.2500 90° East 181 208 7,000  Level Atlanta TRACON
04:42PM 34.0500 -83.1889 72° East 184 212 7,000  Level Atlanta Center
04:43PM 34.0622 -83.1286 76° East 179 206 7,000  Level Atlanta Center
04:44PM 34.0722 -83.0708 78° East 179 206 7,000  Level Atlanta Center
04:45PM 34.0842 -83.0131 76° East 179 206 7,000  Level Atlanta Center
04:46PM 34.0964 -82.9550 76° East 179 206 7,000  Level Atlanta Center
04:47PM 34.1083 -82.8947 77° East 179 206 7,000  Level Atlanta Center
04:48PM 34.1203 -82.8369 76° East 179 206 7,000  Level Atlanta Center
04:49PM 34.1322 -82.7789 76° East 179 206 7,000  Level Atlanta Center
04:50PM 34.1419 -82.7186 79° East 179 206 7,000  Level Atlanta Center
04:51PM 34.1539 -82.6608 76° East 179 206 7,000  Level Atlanta Center
04:52PM 34.1636 -82.6028 79° East 179 206 7,000  Level Atlanta Center
04:53PM 34.2050 -82.5694 34° Northeast 179 206 7,100  Climbing Atlanta Center
04:54PM 34.2569 -82.5558 12° North 162 186 7,100  Level Atlanta Center
04:55PM 34.3089 -82.5350 18° North 172 198 7,100  Level Atlanta Center
04:56PM 34.3608 -82.5214 12° North 185 213 7,100  Level Atlanta Center
04:57PM 34.4108 -82.5028 17° North 185 213 7,100  Level Atlanta Center
04:58PM 34.4628 -82.4844 16° North 185 213 7,100  Level Atlanta Center
04:59PM 34.5189 -82.4681 14° North 185 213 7,100  Level Atlanta Center
05:00PM 34.5708 -82.4469 19° North 185 213 7,100 -180 Level Atlanta Center
05:02PM 34.6149 -82.3464 62° Northeast  Level Estimated
05:09PM 34.7793 -81.9685 62° Northeast  Level Estimated
05:10PM 34.8027 -81.9144 62° Northeast  Level Estimated
05:11PM 34.8260 -81.8603 62° Northeast  Level Estimated
05:11PM 34.8561 -81.8669 62° Northeast 163 188 5,000  Level Atlanta Center
05:12PM 34.8494 -81.8061 62° Northeast  Level Estimated
05:12PM 34.8636 -81.8264 77° East 155 178 5,000  Level Atlanta Center
05:13PM 34.8727 -81.7519 62° Northeast  Level Estimated
05:13PM 34.8814 -81.7700 69° East 154 177 5,000  Level Atlanta Center
05:14PM 34.8960 -81.6977 62° Northeast  Level Estimated
05:14PM 34.9014 -81.7239 62° Northeast 159 183 5,000  Level Atlanta Center
05:15PM 34.9193 -81.6434 62° Northeast  Level Estimated
05:15PM 34.9236 -81.6828 57° Northeast 153 176 5,000  Level Atlanta Center
05:16PM 34.9425 -81.5891 62° Northeast  Level Estimated
05:16PM 34.9436 -81.6417 59° Northeast 149 171 5,100  Level Atlanta Center
05:17PM 34.9636 -81.5853 67° East 179 206 5,000 -60 Descending Atlanta Center
05:18PM 34.9978 -81.5336 51° Northeast 192 221 5,000  Level Atlanta Center
05:19PM 35.0450 -81.4892 38° Northeast 181 208 5,000  Level Atlanta Center
05:20PM 35.0814 -81.4372 49° Northeast 179 206 5,000  Level Atlanta Center
05:21PM 35.1097 -81.3931 52° Northeast 177 204 5,000  Level Atlanta Center
05:22PM 35.1422 -81.3464 50° Northeast 176 203 5,000  Level Atlanta Center
05:23PM 35.1661 -81.2975 59° Northeast 172 198 5,000  Level Atlanta Center
05:24PM 35.1900 -81.2508 58° Northeast 173 199 5,000  Level Atlanta Center
05:25PM 35.2142 -81.2094 54° Northeast 172 198 5,000  Level Atlanta Center
05:26PM 35.2400 -81.1575 59° Northeast 172 198 5,000  Level Atlanta Center
05:27PM 35.2725 -81.1158 46° Northeast 183 211 5,000 -300 Level Atlanta Center
05:28PM 35.3219 -81.0911 22° Northeast 191 220 4,400 -600 Descending Atlanta Center
05:29PM 35.3308 -81.0322 80° East 176 203 3,800 -720 Descending Atlanta Center
05:30PM 35.3419 -80.9733 77° East 169 194 3,000 -660 Descending Atlanta Center
05:31PM 35.3164 -80.9489 142° Southeast 139 160 2,500 -600 Descending Atlanta Center
05:32PM 35.2850 -80.9447 174° South 137 158 1,900 -780 Descending Atlanta Center
05:33PM 35.2431 -80.9414 176° South 140 161 1,100 -840 Descending Atlanta Center
05:35PM 35.2137 -80.9491 39° Northeast  Level Estimated
05:42PM 35.2137 -80.9491 39° Northeast  Level Estimated